LF7422 weather

Glacier d'Argentière Altiport
Chamonix, Auvergne-Rhône-Alpes, France

Public forecast

Using degrees Celsius for public forecast. Weather courtesy of forecast.io.

Closest aviation weather report (METAR) to Glacier d'Argentière Altiport

Closest report is Aosta Airport, 19.7 nm (36.4 km) SE. Retrieved 2020/01/18 08:20 UTC (0 seconds ago):

LIMW 180820Z AUTO 29011KT 9999 NCD 06/M06 Q1024

Closest aviation forecast (TAF) to Glacier d'Argentière Altiport

Closest forecast is Annecy-Haute-Savoie-Mont Blanc Airport, 37.3 nm (69.1 km) W. Retrieved 2020/01/18 09:00 UTC (0 seconds ago):

TAF LFLP 180800Z 1809/1909 02004KT CAVOK BECMG 1904/1906 02010KT BECMG 1907/1909 02010G20KT